createdAt,value
2023-02-22T00:04:41.490Z,4.88
2023-02-22T00:12:51.360Z,5.00
2023-02-22T00:21:00.096Z,4.95
2023-02-22T00:29:09.089Z,3.25
2023-02-22T00:37:14.742Z,5.05
2023-02-22T00:45:25.981Z,2.95
2023-02-22T00:53:31.356Z,3.72
2023-02-22T01:01:39.450Z,3.50
2023-02-22T01:46:38.166Z,5.22
2023-02-22T01:55:45.518Z,4.80
2023-02-22T02:05:24.895Z,4.35
2023-02-22T02:31:39.420Z,4.13
2023-02-22T02:39:56.051Z,3.50
2023-02-22T02:48:04.370Z,4.15
2023-02-22T02:56:12.716Z,3.97
2023-02-22T03:04:43.589Z,4.28
2023-02-22T03:12:59.143Z,3.63
2023-02-22T03:21:14.706Z,12.95
2023-02-22T03:29:25.525Z,13.82
2023-02-22T03:37:34.195Z,9.82
2023-02-22T03:45:44.956Z,7.07
2023-02-22T03:53:52.331Z,7.25
2023-02-22T04:02:03.167Z,7.20
2023-02-22T04:10:10.331Z,8.18
2023-02-22T04:18:19.328Z,7.35
2023-02-22T04:26:26.569Z,6.28
2023-02-22T04:34:37.937Z,6.35
2023-02-22T04:42:43.929Z,7.63
2023-02-22T04:50:52.370Z,7.20
2023-02-22T04:58:58.399Z,5.93
2023-02-22T05:07:06.384Z,8.52
2023-02-22T05:15:12.816Z,10.10
2023-02-22T05:23:20.941Z,8.43
2023-02-22T05:31:26.483Z,9.52
2023-02-22T05:39:34.563Z,8.00
2023-02-22T05:47:39.855Z,11.40
2023-02-22T05:55:47.984Z,9.40
2023-02-22T06:03:54.690Z,10.57
2023-02-22T06:12:02.694Z,9.88
2023-02-22T06:20:08.725Z,9.73
2023-02-22T06:28:17.202Z,17.00
2023-02-22T06:36:22.811Z,11.73
2023-02-22T06:44:30.839Z,10.05
2023-02-22T06:52:36.159Z,8.45
2023-02-22T07:00:44.134Z,9.93
2023-02-22T07:08:50.031Z,12.38
2023-02-22T07:16:58.011Z,10.95
2023-02-22T07:25:03.369Z,13.18
2023-02-22T07:33:13.454Z,17.98
2023-02-22T07:41:19.324Z,19.95
2023-02-22T07:49:27.439Z,15.75
2023-02-22T07:57:32.830Z,11.10
2023-02-22T08:05:43.156Z,8.70
2023-02-22T08:13:51.192Z,8.05
2023-02-22T08:21:59.389Z,7.47
2023-02-22T08:30:04.770Z,9.25
2023-02-22T08:38:20.553Z,11.73
2023-02-22T08:46:25.906Z,7.45
2023-02-22T08:54:34.049Z,12.88
2023-02-22T09:02:39.357Z,11.88
2023-02-22T09:10:48.206Z,12.60
2023-02-22T09:18:53.592Z,9.02
2023-02-22T09:27:04.938Z,7.82
2023-02-22T09:35:13.181Z,8.73
2023-02-22T09:43:38.397Z,11.45
2023-02-22T09:51:49.515Z,9.43
2023-02-22T10:00:13.125Z,10.50
2023-02-22T10:08:22.904Z,7.78
2023-02-22T10:16:37.316Z,6.60
2023-02-22T10:24:55.900Z,7.60
2023-02-22T10:33:10.879Z,7.70
2023-02-22T10:41:27.280Z,8.70
2023-02-22T10:49:39.333Z,8.65
2023-02-22T10:57:47.616Z,10.18
2023-02-22T11:05:55.554Z,7.93
2023-02-22T11:14:02.554Z,10.38
2023-02-22T11:22:17.725Z,9.32
2023-02-22T11:30:29.987Z,12.00
2023-02-22T11:38:39.804Z,10.68
2023-02-22T11:46:46.223Z,11.07
2023-02-22T11:55:32.781Z,8.43
2023-02-22T12:04:15.922Z,8.10
2023-02-22T12:12:33.573Z,11.57
2023-02-22T12:20:43.286Z,7.43
2023-02-22T12:28:59.564Z,9.57
2023-02-22T12:37:13.508Z,6.93
2023-02-22T12:45:31.954Z,8.68
2023-02-22T12:53:39.072Z,7.70
2023-02-22T13:01:53.841Z,8.48
2023-02-22T13:10:26.500Z,9.43
2023-02-22T13:18:39.541Z,7.83
2023-02-22T13:26:50.734Z,7.55
2023-02-22T13:35:26.906Z,6.60
2023-02-22T13:44:02.038Z,8.57
2023-02-22T13:52:12.355Z,9.50
2023-02-22T14:00:27.108Z,8.02
2023-02-22T14:08:50.822Z,7.32
2023-02-22T14:17:25.606Z,9.13
2023-02-22T14:25:42.697Z,9.25
2023-02-22T14:34:00.637Z,9.75
2023-02-22T14:42:12.636Z,9.27
2023-02-22T14:50:23.326Z,10.25
2023-02-22T14:58:37.336Z,7.53
2023-02-22T15:06:42.721Z,11.40
2023-02-22T15:14:51.842Z,8.27
2023-02-22T15:23:02.818Z,12.35
2023-02-22T15:31:26.970Z,9.80
2023-02-22T15:39:34.641Z,9.43
2023-02-22T15:47:42.794Z,12.18
2023-02-22T15:55:49.899Z,13.95
2023-02-22T16:04:01.495Z,15.73
2023-02-22T16:12:25.689Z,14.85
2023-02-22T16:20:40.012Z,15.70
2023-02-22T16:28:52.071Z,22.33
2023-02-22T16:37:01.438Z,22.55
2023-02-22T16:45:07.339Z,31.50
2023-02-22T16:53:15.678Z,42.88
2023-02-22T17:01:23.482Z,47.17
2023-02-22T17:09:31.836Z,35.88
2023-02-22T17:17:37.163Z,40.53
2023-02-22T17:25:47.343Z,39.80
2023-02-22T17:33:53.644Z,42.95
2023-02-22T17:42:01.903Z,42.00
2023-02-22T17:50:07.432Z,27.42
2023-02-22T17:58:17.067Z,27.42
2023-02-22T18:06:27.288Z,28.15
2023-02-22T18:14:35.477Z,26.05
2023-02-22T18:22:43.256Z,27.25
2023-02-22T18:30:54.548Z,20.58
2023-02-22T18:39:00.893Z,21.27
2023-02-22T18:47:08.980Z,27.73
2023-02-22T18:55:17.364Z,31.58
2023-02-22T19:03:25.732Z,37.58
2023-02-22T19:11:31.361Z,40.97
2023-02-22T19:19:40.184Z,38.08
2023-02-22T19:27:45.579Z,36.10
2023-02-22T19:35:53.924Z,31.55
2023-02-22T19:43:59.237Z,41.65
2023-02-22T19:52:08.485Z,33.40
2023-02-22T20:00:24.145Z,32.63
2023-02-22T20:08:32.271Z,28.55
2023-02-22T20:16:38.555Z,32.95
2023-02-22T20:24:47.762Z,34.15
2023-02-22T20:32:53.458Z,36.15
2023-02-22T20:41:01.878Z,37.10
2023-02-22T20:49:11.275Z,35.95
2023-02-22T20:57:19.559Z,34.90
2023-02-22T21:05:25.398Z,37.08
2023-02-22T21:13:34.128Z,35.28
2023-02-22T21:21:39.640Z,37.63
2023-02-22T21:29:47.581Z,40.45
2023-02-22T21:37:54.499Z,39.05
2023-02-22T21:46:05.871Z,40.88
2023-02-22T21:54:14.278Z,43.95
2023-02-22T22:02:22.496Z,49.60
2023-02-22T22:10:31.009Z,60.80
2023-02-22T22:18:45.125Z,75.05
2023-02-22T22:26:51.276Z,86.25
2023-02-22T22:34:59.582Z,54.58
2023-02-22T22:43:06.193Z,47.22
2023-02-22T22:51:18.546Z,39.53
2023-02-22T22:59:24.189Z,37.72
2023-02-22T23:07:32.459Z,42.97
2023-02-22T23:15:38.236Z,30.05
2023-02-22T23:23:47.521Z,29.58
2023-02-22T23:31:54.630Z,46.88
2023-02-22T23:40:05.353Z,43.17
2023-02-22T23:48:10.759Z,38.70
2023-02-22T23:56:22.460Z,35.25
